createdAt,value
2022-09-27T00:00:04.484Z,1.10
2022-09-27T00:00:14.574Z,1.10
2022-09-27T00:00:24.655Z,1.10
2022-09-27T00:00:34.718Z,1.70
2022-09-27T00:00:44.682Z,2.00
2022-09-27T00:00:54.471Z,2.10
2022-09-27T00:01:04.699Z,2.30
2022-09-27T00:01:14.567Z,2.00
2022-09-27T00:01:24.697Z,2.30
2022-09-27T00:01:34.617Z,2.00
2022-09-27T00:01:44.694Z,1.60
2022-09-27T00:01:54.755Z,1.20
2022-09-27T00:02:04.577Z,1.20
2022-09-27T00:02:14.761Z,2.00
2022-09-27T00:02:24.510Z,2.60
2022-09-27T00:02:34.749Z,2.60
2022-09-27T00:02:44.459Z,1.80
2022-09-27T00:02:54.701Z,1.10
2022-09-27T00:03:04.624Z,1.40
2022-09-27T00:03:14.453Z,1.40
2022-09-27T00:03:24.584Z,1.50
2022-09-27T00:03:34.521Z,1.10
2022-09-27T00:03:44.433Z,1.60
2022-09-27T00:03:54.470Z,2.10
2022-09-27T00:04:04.453Z,2.20
2022-09-27T00:04:14.572Z,1.70
2022-09-27T00:04:24.702Z,1.10
2022-09-27T00:04:34.668Z,1.10
2022-09-27T00:04:44.548Z,1.10
2022-09-27T00:04:54.483Z,1.10
2022-09-27T00:05:04.429Z,1.50
2022-09-27T00:05:14.541Z,2.00
2022-09-27T00:05:24.545Z,1.90
2022-09-27T00:05:34.470Z,1.60
2022-09-27T00:05:44.713Z,1.40
2022-09-27T00:05:54.513Z,1.70
2022-09-27T00:06:04.527Z,1.70
2022-09-27T00:06:14.441Z,1.90
2022-09-27T00:06:24.537Z,1.50
2022-09-27T00:06:38.604Z,1.40
2022-09-27T00:06:44.512Z,1.40
2022-09-27T00:06:54.654Z,1.50
2022-09-27T00:07:04.459Z,2.40
2022-09-27T00:07:14.502Z,2.50
2022-09-27T00:07:24.625Z,2.60
2022-09-27T00:07:34.460Z,2.30
2022-09-27T00:07:44.555Z,1.90
2022-09-27T00:07:54.561Z,1.90
2022-09-27T00:08:04.580Z,1.40
2022-09-27T00:08:14.629Z,1.20
2022-09-27T00:08:24.658Z,1.90
2022-09-27T00:08:34.594Z,1.80
2022-09-27T00:08:44.453Z,2.20
2022-09-27T00:08:54.528Z,1.70
2022-09-27T00:09:04.528Z,1.60
2022-09-27T00:09:14.476Z,1.20
2022-09-27T00:09:24.571Z,2.30
2022-09-27T00:09:34.703Z,2.90
2022-09-27T00:09:44.518Z,3.60
2022-09-27T00:09:54.566Z,3.20
2022-09-27T00:10:04.697Z,2.50
2022-09-27T00:10:14.597Z,1.70
2022-09-27T00:10:24.619Z,1.40
2022-09-27T00:10:34.651Z,2.10
2022-09-27T00:10:44.540Z,2.30
2022-09-27T00:10:54.554Z,1.80
2022-09-27T00:11:04.423Z,1.30
2022-09-27T00:11:14.647Z,2.00
2022-09-27T00:11:24.612Z,1.80
2022-09-27T00:11:34.585Z,2.20
2022-09-27T00:11:44.450Z,1.60
2022-09-27T00:11:54.450Z,1.90
2022-09-27T00:12:04.501Z,1.50
2022-09-27T00:12:14.697Z,1.30
2022-09-27T00:12:24.661Z,2.00
2022-09-27T00:12:34.659Z,2.80
2022-09-27T00:12:44.608Z,3.00
2022-09-27T00:12:57.066Z,2.20
2022-09-27T00:13:04.668Z,1.20
2022-09-27T00:13:16.524Z,1.20
2022-09-27T00:13:24.441Z,1.80
2022-09-27T00:13:34.568Z,1.90
2022-09-27T00:13:44.719Z,2.80
2022-09-27T00:13:54.464Z,2.20
2022-09-27T00:14:04.647Z,1.90
2022-09-27T00:14:14.660Z,1.70
2022-09-27T00:14:24.675Z,1.50
2022-09-27T00:14:34.529Z,2.30
2022-09-27T00:14:44.569Z,1.70
2022-09-27T00:14:54.553Z,2.60
2022-09-27T00:15:04.634Z,2.70
2022-09-27T00:15:14.499Z,3.70
2022-09-27T00:15:24.441Z,3.30
2022-09-27T00:15:34.583Z,3.20
2022-09-27T00:15:44.513Z,3.10
2022-09-27T00:15:54.598Z,2.60
2022-09-27T00:16:04.500Z,2.10
2022-09-27T00:16:14.576Z,1.10
2022-09-27T00:16:24.523Z,1.10
2022-09-27T00:16:34.564Z,1.20
2022-09-27T00:16:44.427Z,1.20
2022-09-27T00:16:54.565Z,1.10
2022-09-27T00:17:04.546Z,1.10
2022-09-27T00:17:14.540Z,1.20
2022-09-27T00:17:24.683Z,1.50
2022-09-27T00:17:34.458Z,1.30
2022-09-27T00:17:44.579Z,2.30
2022-09-27T00:17:54.692Z,2.20
2022-09-27T00:18:04.491Z,2.40
2022-09-27T00:18:14.531Z,1.30
2022-09-27T00:18:24.663Z,1.20
2022-09-27T00:18:34.723Z,1.60
2022-09-27T00:18:44.684Z,1.50
2022-09-27T00:18:54.668Z,1.40
2022-09-27T00:19:04.626Z,1.10
2022-09-27T00:19:14.832Z,1.30
2022-09-27T00:19:24.576Z,1.50
2022-09-27T00:19:35.056Z,1.20
2022-09-27T00:19:44.519Z,1.30
2022-09-27T00:19:54.490Z,1.30
2022-09-27T00:20:04.681Z,1.50
2022-09-27T00:20:14.704Z,1.50
2022-09-27T00:20:24.667Z,1.50
2022-09-27T00:20:34.520Z,1.40
2022-09-27T00:20:44.466Z,1.50
2022-09-27T00:20:54.567Z,1.60
2022-09-27T00:21:04.581Z,1.50
2022-09-27T00:21:14.815Z,1.30
2022-09-27T00:21:24.415Z,1.60
2022-09-27T00:21:34.681Z,1.90
2022-09-27T00:21:44.508Z,1.70
2022-09-27T00:21:54.635Z,2.20
2022-09-27T00:22:04.715Z,1.80
2022-09-27T00:22:14.622Z,2.10
2022-09-27T00:22:24.513Z,1.80
2022-09-27T00:22:34.632Z,1.90
2022-09-27T00:22:44.499Z,1.50
2022-09-27T00:22:54.715Z,1.70
2022-09-27T00:23:04.686Z,2.30
2022-09-27T00:23:14.707Z,2.30
2022-09-27T00:23:24.502Z,2.50
2022-09-27T00:23:34.686Z,2.80
2022-09-27T00:23:44.469Z,4.00
2022-09-27T00:23:54.455Z,3.00
2022-09-27T00:24:04.463Z,2.20
2022-09-27T00:24:14.676Z,1.10
2022-09-27T00:24:24.663Z,1.30
2022-09-27T00:24:34.613Z,1.40
2022-09-27T00:24:44.688Z,1.40
2022-09-27T00:24:54.563Z,1.70
2022-09-27T00:25:04.689Z,1.50
2022-09-27T00:25:14.507Z,1.50
2022-09-27T00:25:24.422Z,1.50
2022-09-27T00:25:34.678Z,2.50
2022-09-27T00:25:44.485Z,2.60
2022-09-27T00:25:54.709Z,3.20
2022-09-27T00:26:04.495Z,2.30
2022-09-27T00:26:14.509Z,2.30
2022-09-27T00:26:24.483Z,1.20
2022-09-27T00:26:34.462Z,1.10
2022-09-27T00:26:44.413Z,1.10
2022-09-27T00:26:54.519Z,1.30
2022-09-27T00:27:04.449Z,1.20
2022-09-27T00:27:14.583Z,1.70
2022-09-27T00:27:24.596Z,1.60
2022-09-27T00:27:34.687Z,1.60
2022-09-27T00:27:44.768Z,1.10
2022-09-27T00:27:54.494Z,1.60
2022-09-27T00:28:04.694Z,1.60
2022-09-27T00:28:14.704Z,1.80
2022-09-27T00:28:24.528Z,1.70
2022-09-27T00:28:34.616Z,1.80
2022-09-27T00:28:44.497Z,1.70
2022-09-27T00:28:54.424Z,1.30
2022-09-27T00:29:04.693Z,1.20
2022-09-27T00:29:14.717Z,1.50
2022-09-27T00:29:24.454Z,1.60
2022-09-27T00:29:34.498Z,1.70
2022-09-27T00:29:44.527Z,1.40
2022-09-27T00:29:54.651Z,1.60
2022-09-27T00:30:04.693Z,1.50
2022-09-27T00:30:14.460Z,1.70
2022-09-27T00:30:24.551Z,1.30
2022-09-27T00:30:34.521Z,1.50
2022-09-27T00:30:44.793Z,1.60
2022-09-27T00:30:54.791Z,1.90
2022-09-27T00:31:04.616Z,1.90
2022-09-27T00:31:14.751Z,1.50
2022-09-27T00:31:24.885Z,2.20
2022-09-27T00:31:34.581Z,2.00
2022-09-27T00:31:44.575Z,2.30
2022-09-27T00:31:54.611Z,1.30
2022-09-27T00:32:04.491Z,1.30
2022-09-27T00:32:14.594Z,2.00
2022-09-27T00:32:24.692Z,2.00
2022-09-27T00:32:34.662Z,2.20
2022-09-27T00:32:44.512Z,1.50
2022-09-27T00:32:54.458Z,1.50
2022-09-27T00:33:04.598Z,1.20
2022-09-27T00:33:14.675Z,1.50
2022-09-27T00:33:24.458Z,1.40
2022-09-27T00:33:34.548Z,1.40
2022-09-27T00:33:44.622Z,1.10
2022-09-27T00:33:54.634Z,1.20
2022-09-27T00:34:04.555Z,1.30
2022-09-27T00:34:14.539Z,1.20
2022-09-27T00:34:24.586Z,1.30
2022-09-27T00:34:34.491Z,1.30
2022-09-27T00:34:44.425Z,1.50
2022-09-27T00:34:54.689Z,1.80
2022-09-27T00:35:04.507Z,1.70
2022-09-27T00:35:14.591Z,1.50
2022-09-27T00:35:24.545Z,1.20
2022-09-27T00:35:34.459Z,2.00
2022-09-27T00:35:44.564Z,2.30
2022-09-27T00:35:54.551Z,2.40
2022-09-27T00:36:04.460Z,2.20
2022-09-27T00:36:14.480Z,2.10
2022-09-27T00:36:24.508Z,2.40
2022-09-27T00:36:34.496Z,1.80
2022-09-27T00:36:44.476Z,1.80
2022-09-27T00:36:54.637Z,1.60
2022-09-27T00:37:04.595Z,1.60
2022-09-27T00:37:14.577Z,1.50
2022-09-27T00:37:24.632Z,1.20
2022-09-27T00:37:34.471Z,1.20
2022-09-27T00:37:44.484Z,1.50
2022-09-27T00:37:54.454Z,2.00
2022-09-27T00:38:04.516Z,1.90
2022-09-27T00:38:14.449Z,1.70
2022-09-27T00:38:24.441Z,2.20
2022-09-27T00:38:34.550Z,2.20
2022-09-27T00:38:44.566Z,2.20
2022-09-27T00:38:54.715Z,1.10
2022-09-27T00:39:04.686Z,1.30
2022-09-27T00:39:14.653Z,1.40
2022-09-27T00:39:24.449Z,1.60
2022-09-27T00:39:34.441Z,1.50
2022-09-27T00:39:44.579Z,1.60
2022-09-27T00:39:54.692Z,1.50
2022-09-27T00:40:04.509Z,1.70
2022-09-27T00:40:19.342Z,1.30
2022-09-27T00:40:24.571Z,1.20
2022-09-27T00:40:34.712Z,1.30
2022-09-27T00:40:44.509Z,2.20
2022-09-27T00:40:54.757Z,2.50
2022-09-27T00:41:04.587Z,2.70
2022-09-27T00:41:14.539Z,2.20
2022-09-27T00:41:24.532Z,2.30
2022-09-27T00:41:34.600Z,2.20
2022-09-27T00:41:44.540Z,2.20
2022-09-27T00:41:54.645Z,1.60
2022-09-27T00:42:04.710Z,1.80
2022-09-27T00:42:14.473Z,1.30
2022-09-27T00:42:24.574Z,1.30
2022-09-27T00:42:34.633Z,1.10
2022-09-27T00:42:44.585Z,1.10
2022-09-27T00:42:54.662Z,1.60
2022-09-27T00:43:04.474Z,2.10
2022-09-27T00:43:14.562Z,2.80
2022-09-27T00:43:24.434Z,2.30
2022-09-27T00:43:34.523Z,1.90
2022-09-27T00:43:44.639Z,2.00
2022-09-27T00:43:54.502Z,2.30
2022-09-27T00:44:04.575Z,2.30
2022-09-27T00:44:14.673Z,1.60
2022-09-27T00:44:24.670Z,1.60
2022-09-27T00:44:34.527Z,1.50
2022-09-27T00:44:44.556Z,1.50
2022-09-27T00:44:54.459Z,1.40
2022-09-27T00:45:04.458Z,1.50
2022-09-27T00:45:14.512Z,1.70
2022-09-27T00:45:24.565Z,2.20
2022-09-27T00:45:34.497Z,2.00
2022-09-27T00:45:44.415Z,2.20
2022-09-27T00:45:54.471Z,1.80
2022-09-27T00:46:04.688Z,1.90
2022-09-27T00:46:14.750Z,1.50
2022-09-27T00:46:24.733Z,1.10
2022-09-27T00:46:34.554Z,1.40
2022-09-27T00:46:44.678Z,1.50
2022-09-27T00:46:54.416Z,1.50
2022-09-27T00:47:04.517Z,2.10
2022-09-27T00:47:14.638Z,2.50
2022-09-27T00:47:24.441Z,2.50
2022-09-27T00:47:34.475Z,1.50
2022-09-27T00:47:44.734Z,1.40
2022-09-27T00:47:54.475Z,1.40
2022-09-27T00:48:04.531Z,1.80
2022-09-27T00:48:14.517Z,1.40
2022-09-27T00:48:24.517Z,1.50
2022-09-27T00:48:34.463Z,1.40
2022-09-27T00:48:44.663Z,2.80
2022-09-27T00:48:54.416Z,2.80
2022-09-27T00:49:04.686Z,2.80
2022-09-27T00:49:15.211Z,1.90
2022-09-27T00:49:24.697Z,1.90
2022-09-27T00:49:34.570Z,2.50
2022-09-27T00:49:44.464Z,2.20
2022-09-27T00:49:54.521Z,2.10
2022-09-27T00:50:04.405Z,2.10
2022-09-27T00:50:14.632Z,2.00
2022-09-27T00:50:24.547Z,1.90
2022-09-27T00:50:34.606Z,1.20
2022-09-27T00:50:44.516Z,1.40
2022-09-27T00:50:54.755Z,1.90
2022-09-27T00:51:04.606Z,1.90
2022-09-27T00:51:14.467Z,1.60
2022-09-27T00:51:24.504Z,1.20
2022-09-27T00:51:34.426Z,1.60
2022-09-27T00:51:44.615Z,1.60
2022-09-27T00:51:54.434Z,1.80
2022-09-27T00:52:04.593Z,1.30
2022-09-27T00:52:14.555Z,3.70
2022-09-27T00:52:24.608Z,4.40
2022-09-27T00:52:34.695Z,4.40
2022-09-27T00:52:44.473Z,2.50
2022-09-27T00:52:54.439Z,2.00
2022-09-27T00:53:04.516Z,2.30
2022-09-27T00:53:14.560Z,2.20
2022-09-27T00:53:24.460Z,1.70
2022-09-27T00:53:34.698Z,1.70
2022-09-27T00:53:44.675Z,1.40
2022-09-27T00:53:54.658Z,2.20
2022-09-27T00:54:04.583Z,1.80
2022-09-27T00:54:14.452Z,1.80
2022-09-27T00:54:24.549Z,1.40
2022-09-27T00:54:34.652Z,1.70
2022-09-27T00:54:44.508Z,1.70
2022-09-27T00:54:54.483Z,1.30
2022-09-27T00:55:04.639Z,1.40
2022-09-27T00:55:14.537Z,1.60
2022-09-27T00:55:24.648Z,1.80
2022-09-27T00:55:34.438Z,1.60
2022-09-27T00:55:44.603Z,1.40
2022-09-27T00:55:54.514Z,1.40
2022-09-27T00:56:04.566Z,1.80
2022-09-27T00:56:14.687Z,1.60
2022-09-27T00:56:24.576Z,2.50
2022-09-27T00:56:34.424Z,2.10
2022-09-27T00:56:44.740Z,2.90
2022-09-27T00:56:54.615Z,2.40
2022-09-27T00:57:04.572Z,2.50
2022-09-27T00:57:14.505Z,1.80
2022-09-27T00:57:24.473Z,1.40
2022-09-27T00:57:34.507Z,1.40
2022-09-27T00:57:44.672Z,1.30
2022-09-27T00:57:54.547Z,1.30
2022-09-27T00:58:04.510Z,1.80
2022-09-27T00:58:14.610Z,1.80
2022-09-27T00:58:24.500Z,2.60
2022-09-27T00:58:34.559Z,2.40
2022-09-27T00:58:44.546Z,2.50
2022-09-27T00:58:54.607Z,2.20
2022-09-27T00:59:04.510Z,1.90
2022-09-27T00:59:14.686Z,1.90
2022-09-27T00:59:24.420Z,1.50
2022-09-27T00:59:34.659Z,2.10
2022-09-27T00:59:44.682Z,2.00
2022-09-27T00:59:54.486Z,2.30
2022-09-27T01:00:04.661Z,1.40
2022-09-27T01:00:14.627Z,2.30
2022-09-27T01:00:24.597Z,2.30
2022-09-27T01:00:34.707Z,2.30
2022-09-27T01:00:44.475Z,1.40
2022-09-27T01:00:54.519Z,1.20
2022-09-27T01:01:04.620Z,1.20
2022-09-27T01:01:14.553Z,1.20
2022-09-27T01:01:24.607Z,1.20
2022-09-27T01:01:34.531Z,1.80
2022-09-27T01:01:44.538Z,3.20
2022-09-27T01:01:54.484Z,3.30
2022-09-27T01:02:04.595Z,2.70
2022-09-27T01:02:14.665Z,1.60
2022-09-27T01:02:24.794Z,1.60
2022-09-27T01:02:34.667Z,1.50
2022-09-27T01:02:44.637Z,1.60
2022-09-27T01:02:54.643Z,1.80
2022-09-27T01:03:04.643Z,1.80
2022-09-27T01:03:14.436Z,1.40
2022-09-27T01:03:24.480Z,0.90
2022-09-27T01:03:34.599Z,1.00
2022-09-27T01:03:44.681Z,1.30
2022-09-27T01:03:54.510Z,1.50
2022-09-27T01:04:04.678Z,1.80
2022-09-27T01:04:14.656Z,1.80
2022-09-27T01:04:24.439Z,2.50
2022-09-27T01:04:34.567Z,2.30
2022-09-27T01:04:44.569Z,2.10
2022-09-27T01:04:54.424Z,1.50
2022-09-27T01:05:04.590Z,1.40
2022-09-27T01:05:14.665Z,1.40
2022-09-27T01:05:24.448Z,1.40
2022-09-27T01:05:34.468Z,1.30
2022-09-27T01:05:44.590Z,1.30
2022-09-27T01:05:54.533Z,2.40
2022-09-27T01:06:04.496Z,2.80
2022-09-27T01:06:14.658Z,2.70
2022-09-27T01:06:24.509Z,1.50
2022-09-27T01:06:34.537Z,1.70
2022-09-27T01:06:44.469Z,2.00
2022-09-27T01:06:54.678Z,2.00
2022-09-27T01:07:04.641Z,2.00
2022-09-27T01:07:14.693Z,1.90
2022-09-27T01:07:24.454Z,2.30
2022-09-27T01:07:34.585Z,3.60
2022-09-27T01:07:44.630Z,3.70
2022-09-27T01:07:54.410Z,3.30
2022-09-27T01:08:04.703Z,2.50
2022-09-27T01:08:14.644Z,2.30
2022-09-27T01:08:24.474Z,2.50
2022-09-27T01:08:34.576Z,1.60
2022-09-27T01:08:44.434Z,1.60
2022-09-27T01:08:54.477Z,1.60
2022-09-27T01:09:04.568Z,1.50
2022-09-27T01:09:14.862Z,2.10
2022-09-27T01:09:24.434Z,2.00
2022-09-27T01:09:34.524Z,2.00
2022-09-27T01:09:44.536Z,1.70
2022-09-27T01:09:54.459Z,2.90
2022-09-27T01:10:04.533Z,3.00
2022-09-27T01:10:14.633Z,3.30
2022-09-27T01:10:24.447Z,2.50
2022-09-27T01:10:34.717Z,2.30
2022-09-27T01:10:44.524Z,1.80
2022-09-27T01:10:54.562Z,1.50
2022-09-27T01:11:04.437Z,1.60
2022-09-27T01:11:14.630Z,1.30
2022-09-27T01:11:24.563Z,1.30
2022-09-27T01:11:34.701Z,1.40
2022-09-27T01:11:44.452Z,1.50
2022-09-27T01:11:54.677Z,1.80
2022-09-27T01:12:04.444Z,1.80
2022-09-27T01:12:14.494Z,1.90
2022-09-27T01:12:24.519Z,1.40
2022-09-27T01:12:34.510Z,1.40
2022-09-27T01:12:44.662Z,1.50
2022-09-27T01:12:54.541Z,1.50
2022-09-27T01:13:04.745Z,2.00
2022-09-27T01:13:14.580Z,1.60
2022-09-27T01:13:24.442Z,1.70
2022-09-27T01:13:34.647Z,1.20
2022-09-27T01:13:44.545Z,1.30
2022-09-27T01:13:54.640Z,1.30
2022-09-27T01:14:04.583Z,1.50
2022-09-27T01:14:14.442Z,1.40
2022-09-27T01:14:24.620Z,1.50
2022-09-27T01:14:34.568Z,1.20
2022-09-27T01:14:44.786Z,1.20
2022-09-27T01:14:54.473Z,1.30
2022-09-27T01:15:04.703Z,1.30
2022-09-27T01:15:14.657Z,1.50
2022-09-27T01:15:24.582Z,1.40
2022-09-27T01:15:34.625Z,1.50
2022-09-27T01:15:44.669Z,1.20
2022-09-27T01:15:54.458Z,1.40
2022-09-27T01:16:04.788Z,1.20
2022-09-27T01:16:14.658Z,1.30
2022-09-27T01:16:24.621Z,1.30
2022-09-27T01:16:34.715Z,1.40
2022-09-27T01:16:44.688Z,1.60
2022-09-27T01:16:54.659Z,2.30
2022-09-27T01:17:04.489Z,2.10
2022-09-27T01:17:14.687Z,2.40
2022-09-27T01:17:24.616Z,1.70
2022-09-27T01:17:34.567Z,2.70
2022-09-27T01:17:44.664Z,2.50
2022-09-27T01:17:54.567Z,2.50
2022-09-27T01:18:05.081Z,1.60
2022-09-27T01:18:14.505Z,1.40
2022-09-27T01:18:24.529Z,1.60
2022-09-27T01:18:34.578Z,1.70
2022-09-27T01:18:44.656Z,2.00
2022-09-27T01:18:54.461Z,2.10
2022-09-27T01:19:04.682Z,2.30
2022-09-27T01:19:14.847Z,2.20
2022-09-27T01:19:24.438Z,1.80
2022-09-27T01:19:34.680Z,1.80
2022-09-27T01:19:44.666Z,1.60
2022-09-27T01:19:54.470Z,1.50
2022-09-27T01:20:04.689Z,1.50
2022-09-27T01:20:14.617Z,2.40
2022-09-27T01:20:24.691Z,2.80
2022-09-27T01:20:34.652Z,2.80
2022-09-27T01:20:44.673Z,1.80
2022-09-27T01:20:54.451Z,1.90
2022-09-27T01:21:04.428Z,1.80
2022-09-27T01:21:14.635Z,2.10
2022-09-27T01:21:24.731Z,2.00
2022-09-27T01:21:34.517Z,1.60
2022-09-27T01:21:44.500Z,1.40
2022-09-27T01:21:54.715Z,1.20
2022-09-27T01:22:04.690Z,1.40
2022-09-27T01:22:14.473Z,1.70
2022-09-27T01:22:24.479Z,1.90
2022-09-27T01:22:34.495Z,2.00
2022-09-27T01:22:44.586Z,1.80
2022-09-27T01:22:54.422Z,1.70
2022-09-27T01:23:04.571Z,1.40
2022-09-27T01:23:14.621Z,1.40
2022-09-27T01:23:24.599Z,2.60
2022-09-27T01:23:34.592Z,2.60
2022-09-27T01:23:44.650Z,2.50
2022-09-27T01:23:59.303Z,1.90
2022-09-27T01:24:04.679Z,1.90
2022-09-27T01:24:14.651Z,1.60
2022-09-27T01:24:24.443Z,1.50
2022-09-27T01:24:34.410Z,1.20
2022-09-27T01:24:44.643Z,1.20
2022-09-27T01:24:54.422Z,2.40
2022-09-27T01:25:04.644Z,2.70
2022-09-27T01:25:14.618Z,2.70
2022-09-27T01:25:24.529Z,1.60
2022-09-27T01:25:34.739Z,1.30
2022-09-27T01:25:44.453Z,1.50
2022-09-27T01:25:54.525Z,1.30
2022-09-27T01:26:04.691Z,1.40
2022-09-27T01:26:14.708Z,2.40
2022-09-27T01:26:24.488Z,2.50
2022-09-27T01:26:34.484Z,3.10
2022-09-27T01:26:44.502Z,2.20
2022-09-27T01:26:54.659Z,2.30
2022-09-27T01:27:04.706Z,1.70
2022-09-27T01:27:14.627Z,1.40
2022-09-27T01:27:24.539Z,1.30
2022-09-27T01:27:34.628Z,1.40
2022-09-27T01:27:44.612Z,1.40
2022-09-27T01:27:54.574Z,1.90
2022-09-27T01:28:04.505Z,1.80
2022-09-27T01:28:14.630Z,1.70
2022-09-27T01:28:24.592Z,1.30
2022-09-27T01:28:34.463Z,1.50
2022-09-27T01:28:44.675Z,2.30
2022-09-27T01:28:54.684Z,2.30
2022-09-27T01:29:04.567Z,2.30
2022-09-27T01:29:14.832Z,1.70
2022-09-27T01:29:24.480Z,1.60
2022-09-27T01:29:34.453Z,1.60
2022-09-27T01:29:44.408Z,1.50
2022-09-27T01:29:54.651Z,1.80
2022-09-27T01:30:04.635Z,1.60
2022-09-27T01:30:14.661Z,1.80
2022-09-27T01:30:24.529Z,1.80
2022-09-27T01:30:34.636Z,1.90
2022-09-27T01:30:44.595Z,2.40
2022-09-27T01:30:54.524Z,2.20
2022-09-27T01:31:04.654Z,2.20
2022-09-27T01:31:14.779Z,1.50
2022-09-27T01:31:24.820Z,1.70
2022-09-27T01:31:34.751Z,1.50
2022-09-27T01:31:44.446Z,1.40
2022-09-27T01:31:54.567Z,1.50
2022-09-27T01:32:04.545Z,1.60
2022-09-27T01:32:14.659Z,1.70
2022-09-27T01:32:24.554Z,1.50
2022-09-27T01:32:34.559Z,1.60
2022-09-27T01:32:44.688Z,1.70
2022-09-27T01:32:54.615Z,1.90
2022-09-27T01:33:07.710Z,1.80
2022-09-27T01:33:14.599Z,2.40
2022-09-27T01:33:24.710Z,2.30
2022-09-27T01:33:34.699Z,2.30
2022-09-27T01:33:44.439Z,1.50
2022-09-27T01:33:54.611Z,2.60
2022-09-27T01:34:04.556Z,2.80
2022-09-27T01:34:14.637Z,2.80
2022-09-27T01:34:24.448Z,1.60
2022-09-27T01:34:34.564Z,1.40
2022-09-27T01:34:44.687Z,1.30
2022-09-27T01:34:54.652Z,1.30
2022-09-27T01:35:04.487Z,1.10
2022-09-27T01:35:14.448Z,1.20
2022-09-27T01:35:24.568Z,1.60
2022-09-27T01:35:34.451Z,1.80
2022-09-27T01:35:44.665Z,1.50
2022-09-27T01:35:54.535Z,1.10
2022-09-27T01:36:04.453Z,1.20
2022-09-27T01:36:14.443Z,2.60
2022-09-27T01:36:24.422Z,3.10
2022-09-27T01:36:34.440Z,3.30
2022-09-27T01:36:44.496Z,2.30
2022-09-27T01:36:54.567Z,1.70
2022-09-27T01:37:04.463Z,1.20
2022-09-27T01:37:14.659Z,1.10
2022-09-27T01:37:24.825Z,1.40
2022-09-27T01:37:34.577Z,2.70
2022-09-27T01:37:44.722Z,4.50
2022-09-27T01:37:54.714Z,4.50
2022-09-27T01:38:04.583Z,3.60
2022-09-27T01:38:14.425Z,1.90
2022-09-27T01:38:24.555Z,1.70
2022-09-27T01:38:34.540Z,2.00
2022-09-27T01:38:44.419Z,1.90
2022-09-27T01:38:54.641Z,1.90
2022-09-27T01:39:04.553Z,1.50
2022-09-27T01:39:14.611Z,1.70
2022-09-27T01:39:24.448Z,1.60
2022-09-27T01:39:34.615Z,1.50
2022-09-27T01:39:44.699Z,1.50
2022-09-27T01:39:54.458Z,1.50
2022-09-27T01:40:04.489Z,1.40
2022-09-27T01:40:14.546Z,1.30
2022-09-27T01:40:24.597Z,1.20
2022-09-27T01:40:34.477Z,1.90
2022-09-27T01:40:44.594Z,2.00
2022-09-27T01:40:54.644Z,2.10
2022-09-27T01:41:04.554Z,1.60
2022-09-27T01:41:14.608Z,1.60
2022-09-27T01:41:24.674Z,1.50
2022-09-27T01:41:34.604Z,1.70
2022-09-27T01:41:44.485Z,2.30
2022-09-27T01:41:54.556Z,2.50
2022-09-27T01:42:04.606Z,2.30
2022-09-27T01:42:17.391Z,2.00
2022-09-27T01:42:24.561Z,1.90
2022-09-27T01:42:34.547Z,1.90
2022-09-27T01:42:44.643Z,1.60
2022-09-27T01:42:54.565Z,1.60
2022-09-27T01:43:04.632Z,1.60
2022-09-27T01:43:14.647Z,2.10
2022-09-27T01:43:24.613Z,2.80
2022-09-27T01:43:34.479Z,2.90
2022-09-27T01:43:44.515Z,2.50
2022-09-27T01:43:54.565Z,1.80
2022-09-27T01:44:04.650Z,1.80
2022-09-27T01:44:14.697Z,1.70
2022-09-27T01:44:24.467Z,1.30
2022-09-27T01:44:34.655Z,1.40
2022-09-27T01:44:44.492Z,1.60
2022-09-27T01:44:54.438Z,1.90
2022-09-27T01:45:04.528Z,2.40
2022-09-27T01:45:14.582Z,2.20
2022-09-27T01:45:24.542Z,2.10
2022-09-27T01:45:34.726Z,1.90
2022-09-27T01:45:44.675Z,2.20
2022-09-27T01:45:54.778Z,2.80
2022-09-27T01:46:04.654Z,2.50
2022-09-27T01:46:14.551Z,2.30
2022-09-27T01:46:24.709Z,1.40
2022-09-27T01:46:35.521Z,1.40
2022-09-27T01:46:44.665Z,1.20
2022-09-27T01:46:54.638Z,1.90
2022-09-27T01:47:04.442Z,2.00
2022-09-27T01:47:14.697Z,2.30
2022-09-27T01:47:24.502Z,1.70
2022-09-27T01:47:34.603Z,1.60
2022-09-27T01:47:44.428Z,2.00
2022-09-27T01:47:54.470Z,1.90
2022-09-27T01:48:06.078Z,2.20
2022-09-27T01:48:17.796Z,1.70
2022-09-27T01:48:24.603Z,1.70
2022-09-27T01:48:34.656Z,1.80
2022-09-27T01:48:44.480Z,2.20
2022-09-27T01:48:54.476Z,3.10
2022-09-27T01:49:04.430Z,3.00
2022-09-27T01:49:14.618Z,2.40
2022-09-27T01:49:24.476Z,1.70
2022-09-27T01:49:34.662Z,1.80
2022-09-27T01:49:44.610Z,1.90
2022-09-27T01:49:54.512Z,1.60
2022-09-27T01:50:04.450Z,1.70
2022-09-27T01:50:14.465Z,1.50
2022-09-27T01:50:24.573Z,1.50
2022-09-27T01:50:34.567Z,1.30
2022-09-27T01:50:44.484Z,1.40
2022-09-27T01:50:55.134Z,1.70
2022-09-27T01:51:04.546Z,1.60
2022-09-27T01:51:14.599Z,1.50
2022-09-27T01:51:24.522Z,1.30
2022-09-27T01:51:34.656Z,1.60
2022-09-27T01:51:44.464Z,1.80
2022-09-27T01:51:54.732Z,2.30
2022-09-27T01:52:04.434Z,2.00
2022-09-27T01:52:14.514Z,2.10
2022-09-27T01:52:24.691Z,2.10
2022-09-27T01:52:34.427Z,1.80
2022-09-27T01:52:44.608Z,2.70
2022-09-27T01:52:54.705Z,2.20
2022-09-27T01:53:04.616Z,2.40
2022-09-27T01:53:14.448Z,1.60
2022-09-27T01:53:24.596Z,1.50
2022-09-27T01:53:34.624Z,1.60
2022-09-27T01:53:44.583Z,1.60
2022-09-27T01:53:54.675Z,1.90
2022-09-27T01:54:04.515Z,1.70
2022-09-27T01:54:14.476Z,1.40
2022-09-27T01:54:24.614Z,1.40
2022-09-27T01:54:34.644Z,2.10
2022-09-27T01:54:44.616Z,3.10
2022-09-27T01:54:54.698Z,3.60
2022-09-27T01:55:04.453Z,2.80
2022-09-27T01:55:14.484Z,1.90
2022-09-27T01:55:24.574Z,1.70
2022-09-27T01:55:34.473Z,1.70
2022-09-27T01:55:44.495Z,2.20
2022-09-27T01:55:54.615Z,2.00
2022-09-27T01:56:04.526Z,2.40
2022-09-27T01:56:14.686Z,2.10
2022-09-27T01:56:24.650Z,1.90
2022-09-27T01:56:35.109Z,1.80
2022-09-27T01:56:44.475Z,1.60
2022-09-27T01:56:54.564Z,1.90
2022-09-27T01:57:04.580Z,1.70
2022-09-27T01:57:14.531Z,1.80
2022-09-27T01:57:24.635Z,1.80
2022-09-27T01:57:34.495Z,1.90
2022-09-27T01:57:44.642Z,2.00
2022-09-27T01:57:54.675Z,1.80
2022-09-27T01:58:04.603Z,2.00
2022-09-27T01:58:14.558Z,2.00
2022-09-27T01:58:24.647Z,2.10
2022-09-27T01:58:34.693Z,1.70
2022-09-27T01:58:44.492Z,1.70
2022-09-27T01:58:54.469Z,2.10
2022-09-27T01:59:04.596Z,2.50
2022-09-27T01:59:14.625Z,2.50
2022-09-27T01:59:24.609Z,1.90
2022-09-27T01:59:34.519Z,1.40
2022-09-27T01:59:44.451Z,1.60
2022-09-27T01:59:54.502Z,1.90
2022-09-27T02:00:04.593Z,2.00
2022-09-27T02:00:14.440Z,2.10
2022-09-27T02:00:24.431Z,2.60
2022-09-27T02:00:34.666Z,2.60
2022-09-27T02:00:44.593Z,2.90
2022-09-27T02:00:54.557Z,2.00
2022-09-27T02:01:04.488Z,1.90
2022-09-27T02:01:14.723Z,1.50
2022-09-27T02:01:24.489Z,1.80
2022-09-27T02:01:34.575Z,2.00
2022-09-27T02:01:44.602Z,3.80
2022-09-27T02:01:54.561Z,4.00
2022-09-27T02:02:04.515Z,4.90
2022-09-27T02:02:14.493Z,3.10
2022-09-27T02:02:24.779Z,2.80
2022-09-27T02:02:34.563Z,3.10
2022-09-27T02:02:44.618Z,3.20
2022-09-27T02:02:54.528Z,3.30
2022-09-27T02:03:04.529Z,2.10
2022-09-27T02:03:14.619Z,2.90
2022-09-27T02:03:24.686Z,3.60
2022-09-27T02:03:34.510Z,3.40
2022-09-27T02:03:44.442Z,2.60
2022-09-27T02:03:54.550Z,2.20
2022-09-27T02:04:04.683Z,2.30
2022-09-27T02:04:14.630Z,2.00
2022-09-27T02:04:24.454Z,1.70
2022-09-27T02:04:34.693Z,2.00
2022-09-27T02:04:44.700Z,2.10
2022-09-27T02:04:54.561Z,2.30
2022-09-27T02:05:04.482Z,2.10
2022-09-27T02:05:14.510Z,2.10
2022-09-27T02:05:24.413Z,1.70
2022-09-27T02:05:34.679Z,1.70
2022-09-27T02:05:44.549Z,2.40
2022-09-27T02:05:54.442Z,2.60
2022-09-27T02:06:04.670Z,2.90
2022-09-27T02:06:14.553Z,2.50
2022-09-27T02:06:24.516Z,2.80
2022-09-27T02:06:34.423Z,2.80
2022-09-27T02:06:48.339Z,2.60
2022-09-27T02:06:54.432Z,2.10
2022-09-27T02:07:04.430Z,2.10
2022-09-27T02:07:14.459Z,2.40
2022-09-27T02:07:24.450Z,3.00
2022-09-27T02:07:34.569Z,2.70
2022-09-27T02:07:44.508Z,2.60
2022-09-27T02:07:54.601Z,2.20
2022-09-27T02:08:04.675Z,2.50
2022-09-27T02:08:14.598Z,2.00
2022-09-27T02:08:24.473Z,2.20
2022-09-27T02:08:34.620Z,2.50
2022-09-27T02:08:44.408Z,2.50
2022-09-27T02:08:54.555Z,2.30
2022-09-27T02:09:04.686Z,2.30
2022-09-27T02:09:14.560Z,2.10
2022-09-27T02:09:24.688Z,2.60
2022-09-27T02:09:34.414Z,2.20
2022-09-27T02:09:44.548Z,2.70
2022-09-27T02:09:54.599Z,2.30
2022-09-27T02:10:04.582Z,2.00
2022-09-27T02:10:14.605Z,1.90
2022-09-27T02:10:24.565Z,2.20
2022-09-27T02:10:34.495Z,2.50
2022-09-27T02:10:44.524Z,2.90
2022-09-27T02:10:54.557Z,2.50
2022-09-27T02:11:04.552Z,2.50
2022-09-27T02:11:14.682Z,1.90
2022-09-27T02:11:24.625Z,2.30
2022-09-27T02:11:34.588Z,3.20
2022-09-27T02:11:44.534Z,3.80
2022-09-27T02:11:56.319Z,3.30
2022-09-27T02:12:04.416Z,2.30
2022-09-27T02:12:14.612Z,2.00
2022-09-27T02:12:24.547Z,2.60
2022-09-27T02:12:34.628Z,2.50
2022-09-27T02:12:44.604Z,3.10
2022-09-27T02:12:54.465Z,2.50
2022-09-27T02:13:04.743Z,2.70